map of BOW home
BOW - Airport
Location
City:  Bartow, Florida, United States
Name:Bartow Municipal Airport
ICAO:KBOW
IATA:BOW
FAA LID:BOW

Details
Type:Airport (Airfield)
Use:Public/Civil
Latitude:2756'36"N (27.943361)
Longitude:8147'00"W (-81.783416)
Datum:WGS 1984
Elevation:124 ft (38 m)
Variation:6.01W (WMM2015 magnetic declination)
-0.10 annual change
Runways:3
Longest:5000 × 150 ft (1524 × 45.5 m), paved

Time
Time Zone:UTC-5 (DST-4)
Local Time:

Weather
METAR:KBOW 210635Z AUTO 05007KT 10SM FEW030 FEW041 FEW047 22/22 A3008 RMK AO2

Related Locations
Nearby:
Farthest:USL: 11503 mi / 18512 km
Useless Loop, WA, AU

Find:

   beyond  
but within

Other Information
Maps:
NOTAMs:
Links:
Sources:

  
flag of United States
flag of Florida
  

Airport Diagram

Airport diagram for BOW

Airport diagram PDF

Sectional Chart

Flight Planning
at skyvector.com

Satellite Image

Google Maps Satellite view

 

Copyright © 2004-2017 Karl L. Swartz. All rights reserved.
The Great Circle Mapper name and logo are trademarks of the Great Circle Mapper.
All other trademarks mentioned herein belong to their respective owners.
Please see credits for attibutions and further copyright information.

  Follow gcmap on Facebook Follow gcmap on Twitter Follow gcmap on Google+ GCmap on LinkedIn

hCard Microformat

Geo Microformat